sensor_id;sensor_type;location;lat;lon;timestamp;pressure;altitude;pressure_sealevel;temperature;humidity
56270;BME280;42176;43.240;27.880;2023-06-22T00:00:51;100295.94;;;20.53;100.00
56270;BME280;42176;43.240;27.880;2023-06-22T00:03:18;100296.47;;;20.44;100.00
56270;BME280;42176;43.240;27.880;2023-06-22T00:05:43;100298.59;;;20.39;100.00
56270;BME280;42176;43.240;27.880;2023-06-22T00:08:09;100286.81;;;20.26;100.00
56270;BME280;42176;43.240;27.880;2023-06-22T00:10:35;100293.22;;;20.39;100.00
56270;BME280;42176;43.240;27.880;2023-06-22T00:13:00;100292.34;;;20.38;100.00
56270;BME280;42176;43.240;27.880;2023-06-22T00:15:28;100295.81;;;20.41;100.00
56270;BME280;42176;43.240;27.880;2023-06-22T00:17:54;100295.72;;;20.57;100.00
56270;BME280;42176;43.240;27.880;2023-06-22T00:20:19;100294.28;;;20.65;100.00
56270;BME280;42176;43.240;27.880;2023-06-22T00:22:45;100295.22;;;20.80;97.80
56270;BME280;42176;43.240;27.880;2023-06-22T00:25:11;100296.81;;;20.97;96.62
56270;BME280;42176;43.240;27.880;2023-06-22T00:27:36;100300.41;;;21.12;96.38
56270;BME280;42176;43.240;27.880;2023-06-22T00:30:03;100302.69;;;21.19;94.61
56270;BME280;42176;43.240;27.880;2023-06-22T00:32:28;100296.53;;;21.31;93.27
56270;BME280;42176;43.240;27.880;2023-06-22T00:34:54;100304.97;;;21.39;92.16
56270;BME280;42176;43.240;27.880;2023-06-22T00:37:19;100304.59;;;21.45;92.21
56270;BME280;42176;43.240;27.880;2023-06-22T00:39:48;100301.47;;;21.52;90.84
56270;BME280;42176;43.240;27.880;2023-06-22T00:42:13;100304.84;;;21.55;90.76
56270;BME280;42176;43.240;27.880;2023-06-22T00:44:39;100306.66;;;21.55;90.59
56270;BME280;42176;43.240;27.880;2023-06-22T00:47:04;100310.00;;;21.58;89.74
56270;BME280;42176;43.240;27.880;2023-06-22T00:49:30;100307.06;;;21.63;89.31
56270;BME280;42176;43.240;27.880;2023-06-22T00:51:57;100305.50;;;21.59;89.15
56270;BME280;42176;43.240;27.880;2023-06-22T00:54:24;100303.78;;;21.58;89.10
56270;BME280;42176;43.240;27.880;2023-06-22T00:56:55;100287.78;;;21.55;89.61
56270;BME280;42176;43.240;27.880;2023-06-22T00:59:23;100310.75;;;21.62;89.65
56270;BME280;42176;43.240;27.880;2023-06-22T01:01:51;100314.56;;;21.58;89.78
56270;BME280;42176;43.240;27.880;2023-06-22T01:04:16;100305.69;;;21.56;90.01
56270;BME280;42176;43.240;27.880;2023-06-22T01:10:07;100320.47;;;21.50;90.38
56270;BME280;42176;43.240;27.880;2023-06-22T01:12:40;100314.59;;;21.43;90.90
56270;BME280;42176;43.240;27.880;2023-06-22T01:15:16;100311.91;;;21.43;90.95
56270;BME280;42176;43.240;27.880;2023-06-22T01:17:45;100308.31;;;21.43;91.12
56270;BME280;42176;43.240;27.880;2023-06-22T01:20:13;100306.91;;;21.37;91.46
56270;BME280;42176;43.240;27.880;2023-06-22T01:25:28;100298.44;;;21.29;91.75
56270;BME280;42176;43.240;27.880;2023-06-22T01:28:05;100304.34;;;21.21;91.95
56270;BME280;42176;43.240;27.880;2023-06-22T01:30:40;100289.97;;;21.21;92.50
56270;BME280;42176;43.240;27.880;2023-06-22T01:33:10;100287.09;;;21.09;93.12
56270;BME280;42176;43.240;27.880;2023-06-22T01:35:38;100292.50;;;21.09;93.83
56270;BME280;42176;43.240;27.880;2023-06-22T01:38:04;100295.97;;;21.11;94.22
56270;BME280;42176;43.240;27.880;2023-06-22T01:40:31;100299.63;;;21.10;94.91
56270;BME280;42176;43.240;27.880;2023-06-22T01:45:24;100302.22;;;21.12;95.02
56270;BME280;42176;43.240;27.880;2023-06-22T01:47:50;100304.06;;;21.11;95.42
56270;BME280;42176;43.240;27.880;2023-06-22T01:50:15;100254.63;;;20.83;95.54
56270;BME280;42176;43.240;27.880;2023-06-22T01:52:41;100299.81;;;21.07;96.43
56270;BME280;42176;43.240;27.880;2023-06-22T01:55:06;100306.09;;;21.08;96.34
56270;BME280;42176;43.240;27.880;2023-06-22T01:57:33;100303.47;;;21.06;96.69
56270;BME280;42176;43.240;27.880;2023-06-22T01:59:59;100302.50;;;21.07;96.20
56270;BME280;42176;43.240;27.880;2023-06-22T02:02:28;100303.66;;;21.03;96.59
56270;BME280;42176;43.240;27.880;2023-06-22T02:05:04;100298.25;;;21.03;96.48
56270;BME280;42176;43.240;27.880;2023-06-22T02:07:34;100294.44;;;20.93;97.08
56270;BME280;42176;43.240;27.880;2023-06-22T02:10:03;100310.13;;;21.01;97.15
56270;BME280;42176;43.240;27.880;2023-06-22T02:12:31;100301.66;;;20.92;97.76
56270;BME280;42176;43.240;27.880;2023-06-22T02:14:58;100318.09;;;21.02;97.41
56270;BME280;42176;43.240;27.880;2023-06-22T02:17:26;100316.38;;;21.01;97.26
56270;BME280;42176;43.240;27.880;2023-06-22T02:19:51;100313.28;;;20.93;97.60
56270;BME280;42176;43.240;27.880;2023-06-22T02:22:17;100311.19;;;20.98;96.88
56270;BME280;42176;43.240;27.880;2023-06-22T02:24:43;100315.63;;;20.99;95.69
56270;BME280;42176;43.240;27.880;2023-06-22T02:27:08;100311.00;;;21.01;94.90
56270;BME280;42176;43.240;27.880;2023-06-22T02:29:35;100310.88;;;21.03;94.70
56270;BME280;42176;43.240;27.880;2023-06-22T02:32:01;100320.53;;;21.07;94.33
56270;BME280;42176;43.240;27.880;2023-06-22T02:34:26;100321.19;;;21.10;94.60
56270;BME280;42176;43.240;27.880;2023-06-22T02:36:51;100326.56;;;21.10;94.09
56270;BME280;42176;43.240;27.880;2023-06-22T02:39:26;100324.66;;;21.12;94.01
56270;BME280;42176;43.240;27.880;2023-06-22T02:41:53;100322.53;;;21.18;93.48
56270;BME280;42176;43.240;27.880;2023-06-22T02:44:20;100333.31;;;21.18;93.01
56270;BME280;42176;43.240;27.880;2023-06-22T02:46:47;100326.38;;;21.13;92.58
56270;BME280;42176;43.240;27.880;2023-06-22T02:49:13;100317.53;;;21.11;92.64
56270;BME280;42176;43.240;27.880;2023-06-22T02:51:45;100322.72;;;21.14;92.58
56270;BME280;42176;43.240;27.880;2023-06-22T02:54:10;100334.84;;;21.22;93.22
56270;BME280;42176;43.240;27.880;2023-06-22T02:56:36;100344.47;;;21.26;94.29
56270;BME280;42176;43.240;27.880;2023-06-22T02:59:02;100350.94;;;21.23;94.35
56270;BME280;42176;43.240;27.880;2023-06-22T03:01:28;100348.31;;;21.22;95.38
56270;BME280;42176;43.240;27.880;2023-06-22T03:03:58;100337.16;;;21.13;95.93
56270;BME280;42176;43.240;27.880;2023-06-22T03:06:24;100352.75;;;21.23;96.27
56270;BME280;42176;43.240;27.880;2023-06-22T03:08:58;100349.38;;;21.19;95.75
56270;BME280;42176;43.240;27.880;2023-06-22T03:11:25;100349.28;;;21.21;96.11
56270;BME280;42176;43.240;27.880;2023-06-22T03:13:50;100356.41;;;21.22;95.95
56270;BME280;42176;43.240;27.880;2023-06-22T03:16:17;100369.81;;;21.23;95.66
56270;BME280;42176;43.240;27.880;2023-06-22T03:18:43;100356.59;;;21.19;96.18
56270;BME280;42176;43.240;27.880;2023-06-22T03:21:09;100354.88;;;21.18;96.28
56270;BME280;42176;43.240;27.880;2023-06-22T03:23:34;100335.53;;;21.25;95.60
56270;BME280;42176;43.240;27.880;2023-06-22T03:25:59;100360.25;;;21.47;94.40
56270;BME280;42176;43.240;27.880;2023-06-22T03:28:25;100360.41;;;21.72;92.91
56270;BME280;42176;43.240;27.880;2023-06-22T03:30:50;100356.78;;;22.14;89.90
56270;BME280;42176;43.240;27.880;2023-06-22T03:33:16;100356.13;;;22.38;87.33
56270;BME280;42176;43.240;27.880;2023-06-22T03:35:41;100360.94;;;22.86;84.12
56270;BME280;42176;43.240;27.880;2023-06-22T03:38:07;100360.97;;;23.11;82.33
56270;BME280;42176;43.240;27.880;2023-06-22T03:40:32;100367.22;;;23.38;80.17
56270;BME280;42176;43.240;27.880;2023-06-22T03:42:58;100358.72;;;23.68;78.19
56270;BME280;42176;43.240;27.880;2023-06-22T03:45:23;100341.97;;;23.87;75.84
56270;BME280;42176;43.240;27.880;2023-06-22T03:47:49;100353.75;;;24.24;72.94
56270;BME280;42176;43.240;27.880;2023-06-22T03:50:14;100363.19;;;24.54;71.16
56270;BME280;42176;43.240;27.880;2023-06-22T03:52:40;100365.03;;;24.89;69.43
56270;BME280;42176;43.240;27.880;2023-06-22T03:55:06;100368.03;;;25.20;66.35
56270;BME280;42176;43.240;27.880;2023-06-22T03:57:32;100363.81;;;25.16;66.71
56270;BME280;42176;43.240;27.880;2023-06-22T03:59:58;100369.88;;;25.53;64.48
56270;BME280;42176;43.240;27.880;2023-06-22T04:02:24;100368.38;;;25.38;64.54
56270;BME280;42176;43.240;27.880;2023-06-22T04:04:49;100368.25;;;25.39;65.58
56270;BME280;42176;43.240;27.880;2023-06-22T04:07:15;100376.59;;;25.93;62.22
56270;BME280;42176;43.240;27.880;2023-06-22T04:09:40;100374.53;;;26.29;60.64
56270;BME280;42176;43.240;27.880;2023-06-22T04:12:06;100367.47;;;26.59;59.79
56270;BME280;42176;43.240;27.880;2023-06-22T04:14:32;100375.34;;;27.05;57.69
56270;BME280;42176;43.240;27.880;2023-06-22T04:16:58;100374.53;;;26.51;59.11
56270;BME280;42176;43.240;27.880;2023-06-22T04:19:23;100374.91;;;25.81;62.24
56270;BME280;42176;43.240;27.880;2023-06-22T04:21:49;100381.50;;;25.44;64.34
56270;BME280;42176;43.240;27.880;2023-06-22T04:24:14;100379.97;;;25.40;65.15
56270;BME280;42176;43.240;27.880;2023-06-22T04:26:40;100379.84;;;25.30;65.49
56270;BME280;42176;43.240;27.880;2023-06-22T04:29:07;100386.03;;;25.32;64.83
56270;BME280;42176;43.240;27.880;2023-06-22T04:31:37;100388.66;;;25.45;63.61
56270;BME280;42176;43.240;27.880;2023-06-22T04:34:04;100388.97;;;25.75;62.86
56270;BME280;42176;43.240;27.880;2023-06-22T04:36:37;100391.97;;;26.48;60.19
56270;BME280;42176;43.240;27.880;2023-06-22T04:39:12;100384.25;;;27.38;56.07
56270;BME280;42176;43.240;27.880;2023-06-22T04:41:38;100387.88;;;26.75;57.38
56270;BME280;42176;43.240;27.880;2023-06-22T04:44:20;100386.84;;;26.34;59.54
56270;BME280;42176;43.240;27.880;2023-06-22T04:46:56;100392.22;;;27.30;56.34
56270;BME280;42176;43.240;27.880;2023-06-22T04:49:26;100392.81;;;28.25;52.74
56270;BME280;42176;43.240;27.880;2023-06-22T04:52:02;100394.81;;;28.72;50.67
56270;BME280;42176;43.240;27.880;2023-06-22T04:54:28;100397.41;;;29.41;47.55
56270;BME280;42176;43.240;27.880;2023-06-22T04:56:53;100397.38;;;28.83;48.47
56270;BME280;42176;43.240;27.880;2023-06-22T04:59:22;100406.31;;;28.76;49.26
56270;BME280;42176;43.240;27.880;2023-06-22T05:01:57;100402.66;;;29.52;47.12
56270;BME280;42176;43.240;27.880;2023-06-22T05:04:23;100401.13;;;29.68;46.68
56270;BME280;42176;43.240;27.880;2023-06-22T05:06:49;100415.28;;;30.09;45.29
56270;BME280;42176;43.240;27.880;2023-06-22T05:09:15;100404.91;;;30.49;44.62
56270;BME280;42176;43.240;27.880;2023-06-22T05:11:40;100397.91;;;30.91;43.80
56270;BME280;42176;43.240;27.880;2023-06-22T05:14:06;100400.97;;;31.75;41.87
56270;BME280;42176;43.240;27.880;2023-06-22T05:16:32;100396.50;;;32.42;40.90
56270;BME280;42176;43.240;27.880;2023-06-22T05:18:58;100403.19;;;32.47;40.45
56270;BME280;42176;43.240;27.880;2023-06-22T05:21:26;100393.38;;;33.03;39.02
56270;BME280;42176;43.240;27.880;2023-06-22T05:23:53;100398.00;;;33.67;36.94
56270;BME280;42176;43.240;27.880;2023-06-22T05:26:20;100404.88;;;34.03;36.16
56270;BME280;42176;43.240;27.880;2023-06-22T05:28:46;100409.09;;;34.13;36.27
56270;BME280;42176;43.240;27.880;2023-06-22T05:31:15;100404.66;;;34.59;35.14
56270;BME280;42176;43.240;27.880;2023-06-22T05:33:42;100405.66;;;35.19;33.83
56270;BME280;42176;43.240;27.880;2023-06-22T05:36:08;100407.72;;;35.77;33.09
56270;BME280;42176;43.240;27.880;2023-06-22T05:38:35;100404.88;;;36.22;33.05
56270;BME280;42176;43.240;27.880;2023-06-22T05:41:01;100407.38;;;36.61;31.91
56270;BME280;42176;43.240;27.880;2023-06-22T05:43:26;100410.94;;;36.54;31.81
56270;BME280;42176;43.240;27.880;2023-06-22T05:45:52;100404.19;;;36.85;31.31
56270;BME280;42176;43.240;27.880;2023-06-22T05:48:17;100405.63;;;37.03;30.57
56270;BME280;42176;43.240;27.880;2023-06-22T05:50:43;100410.09;;;37.04;31.09
56270;BME280;42176;43.240;27.880;2023-06-22T05:53:08;100409.78;;;37.21;29.90
56270;BME280;42176;43.240;27.880;2023-06-22T05:55:34;100391.91;;;37.52;29.83
56270;BME280;42176;43.240;27.880;2023-06-22T05:57:59;100404.25;;;37.62;29.27
56270;BME280;42176;43.240;27.880;2023-06-22T06:00:25;100398.72;;;37.56;29.62
56270;BME280;42176;43.240;27.880;2023-06-22T06:02:50;100410.31;;;37.80;29.27
56270;BME280;42176;43.240;27.880;2023-06-22T06:05:16;100407.00;;;38.04;29.39
56270;BME280;42176;43.240;27.880;2023-06-22T06:07:42;100390.72;;;37.81;29.31
56270;BME280;42176;43.240;27.880;2023-06-22T06:10:09;100392.88;;;37.86;29.00
56270;BME280;42176;43.240;27.880;2023-06-22T06:12:34;100404.91;;;38.27;28.32
56270;BME280;42176;43.240;27.880;2023-06-22T06:15:00;100394.88;;;38.05;28.80
56270;BME280;42176;43.240;27.880;2023-06-22T06:17:26;100405.59;;;38.42;28.52
56270;BME280;42176;43.240;27.880;2023-06-22T06:19:51;100399.63;;;37.70;28.50
56270;BME280;42176;43.240;27.880;2023-06-22T06:22:16;100398.91;;;37.96;28.31
56270;BME280;42176;43.240;27.880;2023-06-22T06:24:43;100406.25;;;39.05;27.35
56270;BME280;42176;43.240;27.880;2023-06-22T06:27:09;100408.19;;;38.97;27.49
56270;BME280;42176;43.240;27.880;2023-06-22T06:29:34;100406.66;;;39.15;26.88
56270;BME280;42176;43.240;27.880;2023-06-22T06:32:00;100408.38;;;39.16;27.15
56270;BME280;42176;43.240;27.880;2023-06-22T06:34:25;100409.47;;;38.81;26.94
56270;BME280;42176;43.240;27.880;2023-06-22T06:36:50;100401.34;;;38.80;26.83
56270;BME280;42176;43.240;27.880;2023-06-22T06:39:16;100411.59;;;38.93;26.89
56270;BME280;42176;43.240;27.880;2023-06-22T06:41:41;100411.34;;;39.01;26.86
56270;BME280;42176;43.240;27.880;2023-06-22T06:44:07;100409.00;;;39.32;26.67
56270;BME280;42176;43.240;27.880;2023-06-22T06:46:32;100394.56;;;39.68;25.58
56270;BME280;42176;43.240;27.880;2023-06-22T06:48:58;100404.41;;;39.57;25.74
56270;BME280;42176;43.240;27.880;2023-06-22T06:51:24;100404.09;;;39.34;25.74
56270;BME280;42176;43.240;27.880;2023-06-22T06:53:49;100415.13;;;39.47;25.17
56270;BME280;42176;43.240;27.880;2023-06-22T06:56:14;100420.69;;;39.47;25.81
56270;BME280;42176;43.240;27.880;2023-06-22T06:58:43;100412.22;;;39.02;26.47
56270;BME280;42176;43.240;27.880;2023-06-22T07:01:11;100404.50;;;39.31;26.84
56270;BME280;42176;43.240;27.880;2023-06-22T07:03:36;100415.00;;;39.81;25.60
56270;BME280;42176;43.240;27.880;2023-06-22T07:06:02;100405.13;;;39.92;25.71
56270;BME280;42176;43.240;27.880;2023-06-22T07:08:27;100413.19;;;40.07;25.71
56270;BME280;42176;43.240;27.880;2023-06-22T07:10:53;100411.72;;;40.36;25.74
56270;BME280;42176;43.240;27.880;2023-06-22T07:13:19;100423.91;;;40.67;24.69
56270;BME280;42176;43.240;27.880;2023-06-22T07:15:44;100424.16;;;40.59;25.07
56270;BME280;42176;43.240;27.880;2023-06-22T07:18:10;100422.38;;;40.39;25.51
56270;BME280;42176;43.240;27.880;2023-06-22T07:20:35;100427.16;;;40.32;25.11
56270;BME280;42176;43.240;27.880;2023-06-22T07:23:01;100423.63;;;40.43;24.90
56270;BME280;42176;43.240;27.880;2023-06-22T07:25:26;100426.75;;;40.54;24.64
56270;BME280;42176;43.240;27.880;2023-06-22T07:28:04;100415.56;;;40.35;25.15
56270;BME280;42176;43.240;27.880;2023-06-22T07:30:31;100423.56;;;41.07;24.14
56270;BME280;42176;43.240;27.880;2023-06-22T07:32:58;100427.16;;;41.52;23.72
56270;BME280;42176;43.240;27.880;2023-06-22T07:35:24;100424.34;;;42.20;23.35
56270;BME280;42176;43.240;27.880;2023-06-22T07:37:49;100419.09;;;41.81;22.63
56270;BME280;42176;43.240;27.880;2023-06-22T07:40:15;100423.53;;;40.57;24.82
56270;BME280;42176;43.240;27.880;2023-06-22T07:42:40;100425.00;;;39.16;24.98
56270;BME280;42176;43.240;27.880;2023-06-22T07:45:06;100428.63;;;38.69;26.56
56270;BME280;42176;43.240;27.880;2023-06-22T07:47:34;100429.25;;;39.05;26.29
56270;BME280;42176;43.240;27.880;2023-06-22T07:50:00;100428.28;;;40.49;24.57
56270;BME280;42176;43.240;27.880;2023-06-22T07:52:27;100424.94;;;40.41;23.54
56270;BME280;42176;43.240;27.880;2023-06-22T07:54:53;100429.84;;;39.54;24.88
56270;BME280;42176;43.240;27.880;2023-06-22T07:57:19;100428.41;;;39.32;24.89
56270;BME280;42176;43.240;27.880;2023-06-22T07:59:45;100429.63;;;39.49;25.17
56270;BME280;42176;43.240;27.880;2023-06-22T08:02:11;100428.81;;;38.41;26.45
56270;BME280;42176;43.240;27.880;2023-06-22T08:04:36;100429.25;;;38.45;26.73
56270;BME280;42176;43.240;27.880;2023-06-22T08:07:02;100427.59;;;38.84;25.90
56270;BME280;42176;43.240;27.880;2023-06-22T08:09:30;100422.66;;;39.13;25.29
56270;BME280;42176;43.240;27.880;2023-06-22T08:12:15;100429.25;;;39.12;25.79
56270;BME280;42176;43.240;27.880;2023-06-22T08:14:42;100427.75;;;39.95;24.48
56270;BME280;42176;43.240;27.880;2023-06-22T08:17:09;100424.91;;;39.56;24.58
56270;BME280;42176;43.240;27.880;2023-06-22T08:19:34;100414.88;;;40.08;24.51
56270;BME280;42176;43.240;27.880;2023-06-22T08:22:00;100423.25;;;39.42;24.89
56270;BME280;42176;43.240;27.880;2023-06-22T08:24:26;100416.91;;;39.14;25.18
56270;BME280;42176;43.240;27.880;2023-06-22T08:26:55;100417.13;;;38.99;25.43
56270;BME280;42176;43.240;27.880;2023-06-22T08:29:21;100418.03;;;39.79;25.01
56270;BME280;42176;43.240;27.880;2023-06-22T08:31:49;100423.50;;;38.66;25.96
56270;BME280;42176;43.240;27.880;2023-06-22T08:34:14;100419.63;;;36.51;27.40
56270;BME280;42176;43.240;27.880;2023-06-22T08:36:39;100409.22;;;36.32;28.89
56270;BME280;42176;43.240;27.880;2023-06-22T08:39:10;100414.50;;;36.48;31.22
56270;BME280;42176;43.240;27.880;2023-06-22T08:41:35;100416.66;;;35.79;32.56
56270;BME280;42176;43.240;27.880;2023-06-22T08:44:01;100410.25;;;36.09;32.64
56270;BME280;42176;43.240;27.880;2023-06-22T08:46:27;100412.00;;;37.03;30.45
56270;BME280;42176;43.240;27.880;2023-06-22T08:48:57;100413.38;;;37.91;29.79
56270;BME280;42176;43.240;27.880;2023-06-22T08:51:23;100417.91;;;38.33;29.37
56270;BME280;42176;43.240;27.880;2023-06-22T08:53:49;100411.72;;;38.11;29.49
56270;BME280;42176;43.240;27.880;2023-06-22T08:56:14;100418.19;;;38.65;28.50
56270;BME280;42176;43.240;27.880;2023-06-22T08:58:40;100407.97;;;38.52;29.32
56270;BME280;42176;43.240;27.880;2023-06-22T09:01:05;100413.84;;;38.15;29.28
56270;BME280;42176;43.240;27.880;2023-06-22T09:03:31;100410.75;;;37.83;29.88
56270;BME280;42176;43.240;27.880;2023-06-22T09:05:58;100413.59;;;36.91;31.06
56270;BME280;42176;43.240;27.880;2023-06-22T09:08:23;100409.22;;;37.32;31.07
56270;BME280;42176;43.240;27.880;2023-06-22T09:10:49;100406.81;;;36.94;31.88
56270;BME280;42176;43.240;27.880;2023-06-22T09:13:14;100408.78;;;36.50;32.17
56270;BME280;42176;43.240;27.880;2023-06-22T09:15:40;100410.78;;;36.19;32.72
56270;BME280;42176;43.240;27.880;2023-06-22T09:18:05;100414.03;;;35.56;34.02
56270;BME280;42176;43.240;27.880;2023-06-22T09:20:31;100412.13;;;34.50;35.83
56270;BME280;42176;43.240;27.880;2023-06-22T09:22:56;100416.47;;;34.44;36.68
56270;BME280;42176;43.240;27.880;2023-06-22T09:25:22;100423.63;;;33.99;37.48
56270;BME280;42176;43.240;27.880;2023-06-22T09:27:47;100420.78;;;33.36;38.63
56270;BME280;42176;43.240;27.880;2023-06-22T09:30:13;100418.47;;;32.91;39.68
56270;BME280;42176;43.240;27.880;2023-06-22T09:32:38;100411.94;;;32.34;41.15
56270;BME280;42176;43.240;27.880;2023-06-22T09:35:05;100427.19;;;32.37;41.92
56270;BME280;42176;43.240;27.880;2023-06-22T09:37:34;100413.19;;;31.89;44.22
56270;BME280;42176;43.240;27.880;2023-06-22T09:40:00;100421.19;;;31.48;46.06
56270;BME280;42176;43.240;27.880;2023-06-22T09:42:25;100409.22;;;31.49;46.70
56270;BME280;42176;43.240;27.880;2023-06-22T09:44:50;100421.78;;;31.25;48.33
56270;BME280;42176;43.240;27.880;2023-06-22T09:47:16;100432.91;;;30.61;50.98
56270;BME280;42176;43.240;27.880;2023-06-22T09:49:41;100430.13;;;30.97;50.91
56270;BME280;42176;43.240;27.880;2023-06-22T09:52:07;100419.19;;;31.58;49.02
56270;BME280;42176;43.240;27.880;2023-06-22T09:54:32;100418.91;;;31.69;47.43
56270;BME280;42176;43.240;27.880;2023-06-22T09:56:58;100439.66;;;30.93;50.14
56270;BME280;42176;43.240;27.880;2023-06-22T09:59:23;100420.31;;;30.68;51.82
56270;BME280;42176;43.240;27.880;2023-06-22T10:01:49;100436.78;;;30.04;54.69
56270;BME280;42176;43.240;27.880;2023-06-22T10:04:14;100426.00;;;29.92;55.12
56270;BME280;42176;43.240;27.880;2023-06-22T10:06:40;100438.09;;;30.00;55.45
56270;BME280;42176;43.240;27.880;2023-06-22T10:09:07;100430.91;;;29.23;57.39
56270;BME280;42176;43.240;27.880;2023-06-22T10:11:34;100429.25;;;28.63;59.29
56270;BME280;42176;43.240;27.880;2023-06-22T10:14:01;100411.34;;;29.38;56.17
56270;BME280;42176;43.240;27.880;2023-06-22T10:16:32;100430.03;;;29.13;57.12
56270;BME280;42176;43.240;27.880;2023-06-22T10:18:58;100428.63;;;29.19;56.11
56270;BME280;42176;43.240;27.880;2023-06-22T10:21:24;100427.66;;;29.57;55.16
56270;BME280;42176;43.240;27.880;2023-06-22T10:23:51;100435.84;;;30.13;53.44
56270;BME280;42176;43.240;27.880;2023-06-22T10:26:16;100436.56;;;30.51;52.17
56270;BME280;42176;43.240;27.880;2023-06-22T10:28:42;100425.69;;;30.78;49.53
56270;BME280;42176;43.240;27.880;2023-06-22T10:31:07;100426.75;;;29.85;50.88
56270;BME280;42176;43.240;27.880;2023-06-22T10:33:33;100436.25;;;30.55;49.46
56270;BME280;42176;43.240;27.880;2023-06-22T10:35:58;100436.53;;;29.59;52.29
56270;BME280;42176;43.240;27.880;2023-06-22T10:38:24;100431.69;;;29.53;51.18
56270;BME280;42176;43.240;27.880;2023-06-22T10:40:49;100429.97;;;29.52;51.02
56270;BME280;42176;43.240;27.880;2023-06-22T10:43:14;100436.13;;;29.07;53.75
56270;BME280;42176;43.240;27.880;2023-06-22T10:45:40;100430.22;;;29.01;52.40
56270;BME280;42176;43.240;27.880;2023-06-22T10:48:05;100418.63;;;29.75;50.71
56270;BME280;42176;43.240;27.880;2023-06-22T10:50:31;100419.75;;;29.82;50.28
56270;BME280;42176;43.240;27.880;2023-06-22T10:52:57;100419.53;;;29.66;51.90
56270;BME280;42176;43.240;27.880;2023-06-22T10:55:23;100416.53;;;29.97;51.88
56270;BME280;42176;43.240;27.880;2023-06-22T10:57:48;100415.06;;;29.27;55.20
56270;BME280;42176;43.240;27.880;2023-06-22T11:00:15;100413.13;;;29.09;54.69
56270;BME280;42176;43.240;27.880;2023-06-22T11:02:41;100420.59;;;28.09;59.91
56270;BME280;42176;43.240;27.880;2023-06-22T11:05:07;100422.34;;;28.30;59.30
56270;BME280;42176;43.240;27.880;2023-06-22T11:07:33;100415.75;;;28.52;60.35
56270;BME280;42176;43.240;27.880;2023-06-22T11:09:58;100419.66;;;27.89;61.81
56270;BME280;42176;43.240;27.880;2023-06-22T11:12:24;100412.66;;;27.45;65.22
56270;BME280;42176;43.240;27.880;2023-06-22T11:14:49;100417.28;;;27.55;67.96
56270;BME280;42176;43.240;27.880;2023-06-22T11:17:18;100412.88;;;27.63;70.94
56270;BME280;42176;43.240;27.880;2023-06-22T11:19:44;100414.78;;;28.33;65.61
56270;BME280;42176;43.240;27.880;2023-06-22T11:22:10;100416.91;;;28.10;67.97
56270;BME280;42176;43.240;27.880;2023-06-22T11:24:37;100410.56;;;28.09;69.54
56270;BME280;42176;43.240;27.880;2023-06-22T11:27:02;100404.63;;;28.04;66.25
56270;BME280;42176;43.240;27.880;2023-06-22T11:29:28;100402.56;;;28.18;65.89
56270;BME280;42176;43.240;27.880;2023-06-22T11:31:53;100416.84;;;28.00;64.94
56270;BME280;42176;43.240;27.880;2023-06-22T11:34:19;100422.47;;;27.68;66.32
56270;BME280;42176;43.240;27.880;2023-06-22T11:36:44;100430.34;;;26.87;70.70
56270;BME280;42176;43.240;27.880;2023-06-22T11:39:10;100429.31;;;26.35;78.38
56270;BME280;42176;43.240;27.880;2023-06-22T11:41:36;100428.53;;;26.11;81.87
56270;BME280;42176;43.240;27.880;2023-06-22T11:44:01;100430.81;;;26.39;82.99
56270;BME280;42176;43.240;27.880;2023-06-22T11:46:27;100417.06;;;26.73;79.92
56270;BME280;42176;43.240;27.880;2023-06-22T11:48:52;100412.38;;;27.48;76.86
56270;BME280;42176;43.240;27.880;2023-06-22T11:51:18;100404.66;;;27.94;70.16
56270;BME280;42176;43.240;27.880;2023-06-22T11:53:43;100405.06;;;27.49;76.15
56270;BME280;42176;43.240;27.880;2023-06-22T11:56:09;100407.28;;;27.65;75.99
56270;BME280;42176;43.240;27.880;2023-06-22T11:58:34;100399.00;;;27.76;72.26
56270;BME280;42176;43.240;27.880;2023-06-22T12:00:59;100407.00;;;27.68;70.36
56270;BME280;42176;43.240;27.880;2023-06-22T12:03:25;100401.66;;;27.57;72.38
56270;BME280;42176;43.240;27.880;2023-06-22T12:05:51;100401.22;;;26.78;72.04
56270;BME280;42176;43.240;27.880;2023-06-22T12:08:17;100386.84;;;26.87;77.54
56270;BME280;42176;43.240;27.880;2023-06-22T12:10:43;100405.31;;;26.72;77.01
56270;BME280;42176;43.240;27.880;2023-06-22T12:13:09;100411.16;;;26.68;77.41
56270;BME280;42176;43.240;27.880;2023-06-22T12:15:34;100401.97;;;26.48;79.36
56270;BME280;42176;43.240;27.880;2023-06-22T12:18:00;100391.88;;;26.92;77.09
56270;BME280;42176;43.240;27.880;2023-06-22T12:20:26;100403.41;;;27.36;75.52
56270;BME280;42176;43.240;27.880;2023-06-22T12:22:51;100402.97;;;27.00;79.70
56270;BME280;42176;43.240;27.880;2023-06-22T12:25:17;100406.63;;;26.89;82.30
56270;BME280;42176;43.240;27.880;2023-06-22T12:27:43;100403.88;;;26.68;83.77
56270;BME280;42176;43.240;27.880;2023-06-22T12:30:09;100392.44;;;26.53;83.69
56270;BME280;42176;43.240;27.880;2023-06-22T12:32:34;100399.97;;;26.82;79.84
56270;BME280;42176;43.240;27.880;2023-06-22T12:35:00;100407.03;;;26.52;84.24
56270;BME280;42176;43.240;27.880;2023-06-22T12:37:25;100407.91;;;26.53;80.23
56270;BME280;42176;43.240;27.880;2023-06-22T12:39:51;100401.38;;;26.11;82.27
56270;BME280;42176;43.240;27.880;2023-06-22T12:42:16;100411.19;;;26.24;79.69
56270;BME280;42176;43.240;27.880;2023-06-22T12:44:42;100399.47;;;26.23;79.75